If you wish to contribute or participate in the discussions about articles you are invited to join SKYbrary as a registered user

 Actions

Gibraltar Airport

From SKYbrary Wiki

LXGB
Airport
ICAO: LXGB – IATA: GIB
Summary
Name Gibraltar Airport
Region Europe
Territory Gibraltar GI.gif
Location Gibraltar, Gibraltar
Serving Gibraltar
Elevation 3.048 m
10 ft3.048 m
Coordinates 36° 9' 3.58" N, 5° 20' 54.02" W
Runways
Designator Length Width Surface ROPS
9/27 1829 m6,000.656 ft
46 m150.919 ft
ASP yes/yes


METAR
Observation LXGB 192350Z AUTO 25015KT 9999 // NCD 24/10 Q1014
Station Gibraltar
Date/Time 19 August 2019 23:50:00
Wind direction 250°
Wind speed 15 kts
Lowest cloud amount no clouds detected
Temperature 24°C
Dew point 10°C
Humidity 41%
QNH 1014 hPa
Weather condition n/a

RE
Tag(s) Crosswind Landings
WX
Tag(s) Low Level Turbulence

International airport serving the British Overseas Territory of Gibraltar.

Climatology

Dry-summer subtropical ”Mediterranean" climate (Köppen climate classification Csa) - characterized by hot, dry summers and mild winters. During the summer, subtropical high pressure cells dominate, making rainfall unlikely except for the occasional thunderstorm. In the winter, periodic storms bring rain.

Maps

Terrain

Loading map...

Airport Layout

Loading map...


Accidents & Serious Incidents at or in vicinity of LXGB

None on SKYbrary